Laguepe — 9HAI9 — position and weather

sailwx.info

Track history (hours):
 
Tides and Currents Weather Stations Pressure Air Temp Water Temp Dewpoint Dewpoint Depression Visibility Wind Speed Wind Dir Waves Ship Positions

Laguepe

Last reported at 2014-Aug-27 20:33 UTC. Time now 2014-Aug-27 21:17 UTC.
Position N 43°23' E 004°49'.

Length 81 m; draft 2.8 m.

Type: Cargo ship. MMSI: 256681000.

Date/timePositionNaut miles runAvg speedWind from/ knotsBaromVisibWave heightAir tempDewpointWater temp
2014-Aug-27 20:33N 43°23' E 004°49'7 7.0
2014-Aug-27 19:33N 43°21' E 004°58'8 7.5
2014-Aug-27 18:34N 43°16' E 005°07'8 7.9
2014-Aug-27 17:34N 43°12' E 005°16'17 8.0
2014-Aug-27 15:25N 43°05' E 005°37'8 7.8
2014-Aug-27 14:27N 43°02' E 005°47'6 7.2
2014-Aug-27 13:33N 43°01' E 005°55'7 7.4
2014-Aug-27 12:32N 42°59' E 006°05'7 7.5
2014-Aug-27 11:33N 42°57' E 006°15'8 7.9
2014-Aug-27 10:32N 42°57' E 006°26'9 8.8
2014-Aug-27 09:33N 43°02' E 006°36'9 8.9
2014-Aug-27 08:33N 43°07' E 006°46'9 8.8
2014-Aug-27 07:33N 43°11' E 006°57'8 8.4
2014-Aug-27 06:33N 43°16' E 007°06'9 7.8
2014-Aug-27 05:24N 43°21' E 007°16'6 6.7
2014-Aug-27 04:28N 43°25' E 007°23'6 6.3
2014-Aug-27 03:33N 43°28' E 007°30'7 6.5
2014-Aug-27 02:30N 43°32' E 007°38'47 6.6
2014-Aug-26 19:22N 44°04' E 008°25'5 6.5
2014-Aug-26 18:33N 44°09' E 008°29'9 6.7
2014-Aug-26 17:16N 44°17' E 008°32'2 0.6
2014-Aug-26 13:29N 44°19' E 008°30'2 0.1
2014-Aug-25 15:33N 44°18' E 008°32'9 7.4
2014-Aug-25 14:24N 44°09' E 008°29'16 8.2
2014-Aug-25 12:24N 43°55' E 008°18'10 7.4
2014-Aug-25 11:05N 43°48' E 008°09'42 7.2
2014-Aug-25 05:19N 43°24' E 007°22'9 7.2
2014-Aug-25 04:05N 43°19' E 007°12'5 7.1
2014-Aug-25 03:20N 43°16' E 007°05'6 7.0
2014-Aug-25 02:33N 43°13' E 006°59'7 7.0
2014-Aug-25 01:33N 43°09' E 006°51'7 7.2
2014-Aug-25 00:33N 43°05' E 006°43'7 7.4
2014-Aug-24 23:33N 43°01' E 006°35'7 7.2
2014-Aug-24 22:34N 42°57' E 006°27'7 7.4
2014-Aug-24 21:33N 42°57' E 006°17'8 8.4
2014-Aug-24 20:33N 42°58' E 006°06'8 8.3
2014-Aug-24 19:33N 43°01' E 005°55'9 8.6
2014-Aug-24 18:33N 43°03' E 005°43'19 8.6
2014-Aug-24 16:20N 43°11' E 005°19'7 8.7
2014-Aug-24 15:32N 43°14' E 005°11'8 8.7
2014-Aug-24 14:33N 43°18' E 005°01'7 7.4
2014-Aug-24 13:33N 43°24' E 004°54'4 3.6
2014-Aug-24 12:33N 43°23' E 004°49'  
2014-Aug-21 05:33N 43°23' E 004°49'3 2.5
2014-Aug-21 04:33N 43°23' E 004°52'6 5.9
2014-Aug-21 03:34N 43°20' E 004°59'5 5.1
2014-Aug-21 02:34N 43°16' E 005°01'5 5.3
2014-Aug-21 01:33N 43°10' E 005°02'7 6.9
2014-Aug-21 00:33N 43°04' E 004°59'6 6.2
2014-Aug-20 23:33N 42°58' E 004°55'6 5.9
2014-Aug-20 22:33N 42°54' E 004°50'6 5.7
2014-Aug-20 21:33N 42°49' E 004°46'5 5.0
2014-Aug-20 20:33N 42°44' E 004°42'5 4.7
2014-Aug-20 19:33N 42°40' E 004°39'5 5.0
2014-Aug-20 18:33N 42°36' E 004°35'6 5.5
2014-Aug-20 17:33N 42°32' E 004°31'6 6.2
2014-Aug-20 16:33N 42°27' E 004°26'7 6.6
2014-Aug-20 15:33N 42°21' E 004°22'6 6.4
2014-Aug-20 14:33N 42°15' E 004°17'6 6.5
2014-Aug-20 13:33N 42°10' E 004°13'7 6.4
2014-Aug-20 12:32N 42°04' E 004°09'6 6.6
2014-Aug-20 11:33N 41°59' E 004°04'8 8.1
2014-Aug-20 10:33N 41°52' E 003°59'8 8.0
2014-Aug-20 09:33N 41°45' E 003°53'8 8.0
2014-Aug-20 08:33N 41°38' E 003°47'7 7.5
2014-Aug-20 07:33N 41°31' E 003°43'8 7.7
2014-Aug-20 06:28N 41°24' E 003°37'7 7.3
2014-Aug-20 05:32N 41°18' E 003°32'8 8.2
2014-Aug-20 04:30N 41°11' E 003°27'8 8.0
2014-Aug-20 03:31N 41°04' E 003°21'16 7.8
2014-Aug-20 01:31N 40°51' E 003°11'8 8.3
2014-Aug-20 00:33N 40°44' E 003°05'8 8.2
2014-Aug-19 23:34N 40°37' E 002°60'8 8.2
2014-Aug-19 22:33N 40°30' E 002°54'8 8.2
2014-Aug-19 21:33N 40°23' E 002°49'8 8.3
2014-Aug-19 20:33N 40°16' E 002°43'9 8.8
2014-Aug-19 19:33N 40°08' E 002°37'8 8.5
2014-Aug-19 18:33N 40°01' E 002°32'8 8.3
2014-Aug-19 17:34N 39°54' E 002°26'9 8.7
2014-Aug-19 16:33N 39°46' E 002°21'9 8.9
2014-Aug-19 15:34N 39°39' E 002°15'7 6.6
2014-Aug-19 14:33N 39°32' E 002°16'9 8.8
2014-Aug-19 13:33N 39°27' E 002°25'7 7.4
2014-Aug-19 12:34N 39°28' E 002°34'5 5.2
2014-Aug-19 11:32N 39°33' E 002°38'0 0.0
2014-Aug-19 10:29N 39°33' E 002°38'0 0.0
2014-Aug-19 09:32N 39°33' E 002°38'0 0.0
2014-Aug-19 08:29N 39°33' E 002°38'0 0.0
2014-Aug-19 07:32N 39°33' E 002°38'0 0.0
2014-Aug-19 06:32N 39°33' E 002°38'0 0.0
2014-Aug-19 05:32N 39°33' E 002°38'0 0.0
2014-Aug-19 04:32N 39°33' E 002°38'0 0.0
2014-Aug-19 03:32N 39°33' E 002°38'0 0.0
2014-Aug-19 02:32N 39°33' E 002°38'0 0.0
2014-Aug-19 01:32N 39°33' E 002°38'0 0.0
2014-Aug-19 00:32N 39°33' E 002°38'0 0.0
2014-Aug-18 23:32N 39°33' E 002°38'0 0.0
2014-Aug-18 22:32N 39°33' E 002°38'0 0.0
2014-Aug-18 21:32N 39°33' E 002°38'0 0.0
2014-Aug-18 20:32N 39°33' E 002°38'0 0.0
2014-Aug-18 19:32N 39°33' E 002°38'0 0.0
2014-Aug-18 18:32N 39°33' E 002°38'0 0.0
2014-Aug-18 17:29N 39°33' E 002°38'0 0.0
2014-Aug-18 16:32N 39°33' E 002°38'0 0.0
2014-Aug-18 15:32N 39°33' E 002°38'0 0.0
2014-Aug-18 14:32N 39°33' E 002°38'0 0.0
2014-Aug-18 13:32N 39°33' E 002°38'0 0.0
2014-Aug-18 12:32N 39°33' E 002°38'0 0.0
2014-Aug-18 11:32N 39°33' E 002°38'0 0.0
2014-Aug-18 10:32N 39°33' E 002°38'0 0.0
2014-Aug-18 09:29N 39°33' E 002°38'0 0.0
2014-Aug-18 08:32N 39°33' E 002°38'0 0.0
2014-Aug-18 07:32N 39°33' E 002°38'0 0.0
2014-Aug-18 06:32N 39°33' E 002°38'0 0.0
2014-Aug-18 05:32N 39°33' E 002°38'0 0.0
2014-Aug-18 04:31N 39°33' E 002°38'0 0.0
2014-Aug-18 03:32N 39°33' E 002°38'0 0.0
2014-Aug-18 02:32N 39°33' E 002°38'0 0.0
2014-Aug-18 01:32N 39°33' E 002°38'0 0.0
2014-Aug-18 00:29N 39°33' E 002°38'  
Track history (hours):
 
Tides and Currents Weather Stations Pressure Air Temp Water Temp Dewpoint Dewpoint Depression Visibility Wind Speed Wind Dir Waves Ship Positions

Laguepe

Last reported at 2014-Aug-27 20:33 UTC. Time now 2014-Aug-27 21:18 UTC.
Position N 43°23' E 004°49'.

Length 81 m; draft 2.8 m.

Type: Cargo ship. MMSI: 256681000.

Date/timePositionNaut miles runAvg speedWind from/ knotsBaromVisibWave heightAir tempDewpointWater temp
2014-Aug-27 20:33N 43°23' E 004°49'7 7.0
2014-Aug-27 19:33N 43°21' E 004°58'8 7.5
2014-Aug-27 18:34N 43°16' E 005°07'8 7.9
2014-Aug-27 17:34N 43°12' E 005°16'17 8.0
2014-Aug-27 15:25N 43°05' E 005°37'8 7.8
2014-Aug-27 14:27N 43°02' E 005°47'6 7.2
2014-Aug-27 13:33N 43°01' E 005°55'7 7.4
2014-Aug-27 12:32N 42°59' E 006°05'7 7.5
2014-Aug-27 11:33N 42°57' E 006°15'8 7.9
2014-Aug-27 10:32N 42°57' E 006°26'9 8.8
2014-Aug-27 09:33N 43°02' E 006°36'9 8.9
2014-Aug-27 08:33N 43°07' E 006°46'9 8.8
2014-Aug-27 07:33N 43°11' E 006°57'8 8.4
2014-Aug-27 06:33N 43°16' E 007°06'9 7.8
2014-Aug-27 05:24N 43°21' E 007°16'6 6.7
2014-Aug-27 04:28N 43°25' E 007°23'6 6.3
2014-Aug-27 03:33N 43°28' E 007°30'7 6.5
2014-Aug-27 02:30N 43°32' E 007°38'47 6.6
2014-Aug-26 19:22N 44°04' E 008°25'5 6.5
2014-Aug-26 18:33N 44°09' E 008°29'9 6.7
2014-Aug-26 17:16N 44°17' E 008°32'2 0.6
2014-Aug-26 13:29N 44°19' E 008°30'2 0.1
2014-Aug-25 15:33N 44°18' E 008°32'9 7.4
2014-Aug-25 14:24N 44°09' E 008°29'16 8.2
2014-Aug-25 12:24N 43°55' E 008°18'10 7.4
2014-Aug-25 11:05N 43°48' E 008°09'42 7.2
2014-Aug-25 05:19N 43°24' E 007°22'9 7.2
2014-Aug-25 04:05N 43°19' E 007°12'5 7.1
2014-Aug-25 03:20N 43°16' E 007°05'6 7.0
2014-Aug-25 02:33N 43°13' E 006°59'7 7.0
2014-Aug-25 01:33N 43°09' E 006°51'7 7.2
2014-Aug-25 00:33N 43°05' E 006°43'7 7.4
2014-Aug-24 23:33N 43°01' E 006°35'7 7.2
2014-Aug-24 22:34N 42°57' E 006°27'7 7.4
2014-Aug-24 21:33N 42°57' E 006°17'8 8.4
2014-Aug-24 20:33N 42°58' E 006°06'8 8.3
2014-Aug-24 19:33N 43°01' E 005°55'9 8.6
2014-Aug-24 18:33N 43°03' E 005°43'19 8.6
2014-Aug-24 16:20N 43°11' E 005°19'7 8.7
2014-Aug-24 15:32N 43°14' E 005°11'8 8.7
2014-Aug-24 14:33N 43°18' E 005°01'7 7.4
2014-Aug-24 13:33N 43°24' E 004°54'4 3.6
2014-Aug-24 12:33N 43°23' E 004°49'  
2014-Aug-21 05:33N 43°23' E 004°49'3 2.5
2014-Aug-21 04:33N 43°23' E 004°52'6 5.9
2014-Aug-21 03:34N 43°20' E 004°59'5 5.1
2014-Aug-21 02:34N 43°16' E 005°01'5 5.3
2014-Aug-21 01:33N 43°10' E 005°02'7 6.9
2014-Aug-21 00:33N 43°04' E 004°59'6 6.2
2014-Aug-20 23:33N 42°58' E 004°55'6 5.9
2014-Aug-20 22:33N 42°54' E 004°50'6 5.7
2014-Aug-20 21:33N 42°49' E 004°46'5 5.0
2014-Aug-20 20:33N 42°44' E 004°42'5 4.7
2014-Aug-20 19:33N 42°40' E 004°39'5 5.0
2014-Aug-20 18:33N 42°36' E 004°35'6 5.5
2014-Aug-20 17:33N 42°32' E 004°31'6 6.2
2014-Aug-20 16:33N 42°27' E 004°26'7 6.6
2014-Aug-20 15:33N 42°21' E 004°22'6 6.4
2014-Aug-20 14:33N 42°15' E 004°17'6 6.5
2014-Aug-20 13:33N 42°10' E 004°13'7 6.4
2014-Aug-20 12:32N 42°04' E 004°09'6 6.6
2014-Aug-20 11:33N 41°59' E 004°04'8 8.1
2014-Aug-20 10:33N 41°52' E 003°59'8 8.0
2014-Aug-20 09:33N 41°45' E 003°53'8 8.0
2014-Aug-20 08:33N 41°38' E 003°47'7 7.5
2014-Aug-20 07:33N 41°31' E 003°43'8 7.7
2014-Aug-20 06:28N 41°24' E 003°37'7 7.3
2014-Aug-20 05:32N 41°18' E 003°32'8 8.2
2014-Aug-20 04:30N 41°11' E 003°27'8 8.0
2014-Aug-20 03:31N 41°04' E 003°21'16 7.8
2014-Aug-20 01:31N 40°51' E 003°11'8 8.3
2014-Aug-20 00:33N 40°44' E 003°05'8 8.2
2014-Aug-19 23:34N 40°37' E 002°60'8 8.2
2014-Aug-19 22:33N 40°30' E 002°54'8 8.2
2014-Aug-19 21:33N 40°23' E 002°49'8 8.3
2014-Aug-19 20:33N 40°16' E 002°43'9 8.8
2014-Aug-19 19:33N 40°08' E 002°37'8 8.5
2014-Aug-19 18:33N 40°01' E 002°32'8 8.3
2014-Aug-19 17:34N 39°54' E 002°26'9 8.7
2014-Aug-19 16:33N 39°46' E 002°21'9 8.9
2014-Aug-19 15:34N 39°39' E 002°15'7 6.6
2014-Aug-19 14:33N 39°32' E 002°16'9 8.8
2014-Aug-19 13:33N 39°27' E 002°25'7 7.4
2014-Aug-19 12:34N 39°28' E 002°34'5 5.2
2014-Aug-19 11:32N 39°33' E 002°38'0 0.0
2014-Aug-19 10:29N 39°33' E 002°38'0 0.0
2014-Aug-19 09:32N 39°33' E 002°38'0 0.0
2014-Aug-19 08:29N 39°33' E 002°38'0 0.0
2014-Aug-19 07:32N 39°33' E 002°38'0 0.0
2014-Aug-19 06:32N 39°33' E 002°38'0 0.0
2014-Aug-19 05:32N 39°33' E 002°38'0 0.0
2014-Aug-19 04:32N 39°33' E 002°38'0 0.0
2014-Aug-19 03:32N 39°33' E 002°38'0 0.0
2014-Aug-19 02:32N 39°33' E 002°38'0 0.0
2014-Aug-19 01:32N 39°33' E 002°38'0 0.0
2014-Aug-19 00:32N 39°33' E 002°38'0 0.0
2014-Aug-18 23:32N 39°33' E 002°38'0 0.0
2014-Aug-18 22:32N 39°33' E 002°38'0 0.0
2014-Aug-18 21:32N 39°33' E 002°38'0 0.0
2014-Aug-18 20:32N 39°33' E 002°38'0 0.0
2014-Aug-18 19:32N 39°33' E 002°38'0 0.0
2014-Aug-18 18:32N 39°33' E 002°38'0 0.0
2014-Aug-18 17:29N 39°33' E 002°38'0 0.0
2014-Aug-18 16:32N 39°33' E 002°38'0 0.0
2014-Aug-18 15:32N 39°33' E 002°38'0 0.0
2014-Aug-18 14:32N 39°33' E 002°38'0 0.0
2014-Aug-18 13:32N 39°33' E 002°38'0 0.0
2014-Aug-18 12:32N 39°33' E 002°38'0 0.0
2014-Aug-18 11:32N 39°33' E 002°38'0 0.0
2014-Aug-18 10:32N 39°33' E 002°38'0 0.0
2014-Aug-18 09:29N 39°33' E 002°38'0 0.0
2014-Aug-18 08:32N 39°33' E 002°38'0 0.0
2014-Aug-18 07:32N 39°33' E 002°38'0 0.0
2014-Aug-18 06:32N 39°33' E 002°38'0 0.0
2014-Aug-18 05:32N 39°33' E 002°38'0 0.0
2014-Aug-18 04:31N 39°33' E 002°38'0 0.0
2014-Aug-18 03:32N 39°33' E 002°38'0 0.0
2014-Aug-18 02:32N 39°33' E 002°38'0 0.0
2014-Aug-18 01:32N 39°33' E 002°38'0 0.0
2014-Aug-18 00:29N 39°33' E 002°38'  

Dump ship's entire track history